KSME Airport (Lake Cumberland Rgnl) Information

FAA: SME - ICAO: KSME

KSME Airport Location

State Kentucky
County Pulaski
City Somerset
KSME Airport is 3 miles south of Somerset, KY.
Latitude 37-03-12.9000N
Longitude 084-36-56.3000W
Elevation 927ft

KSME Airport METARs

METAR KSME 161933Z AUTO 10004KT 10SM SCT040 SCT048 BKN060 28/07 A3007 RMK AO2 TSNO
Altimeter 30.07"
Temperature 28.0°C (82.4°F)
Wind 100° at 4KT
Clouds scattered at 4,000ft scattered at 4,800ft broken at 6,000ft
Visibility 10.0mi
Time observed: 2021-09-16T19:33:00Z

KSME Airport Details

Status Operational
Activation August 1952
Ownership Public
Usage Public
Chart CINCINNATI
ATC on-site No
Beacon schedule sunset-sunrise
Beacon color clear green

KSME Airport Contacts

Owner SOMERSET-PULASKI COUNTY
Owner address 500 W.O. NEWELL DRIVE, SOMERSET, KY 42501
Owner phone 606-679-7908
Manager GREGORY PRIDDY
Manager address 2000 ASHLAND DRIVE, RUSSELL, KY 41169
Manager phone 606-833-6203

KSME Airport (Lake Cumberland Rgnl) Radio Frequencies

KSME (Airport) Radio Frequencies

UNICOM 122.8
Common traffic advisory frequency (CTAF) 122.8